createdAt,value
2023-02-01T00:00:58.872Z,95.04
2023-02-01T00:03:25.876Z,95.23
2023-02-01T00:06:00.254Z,95.27
2023-02-01T00:08:27.695Z,95.29
2023-02-01T00:11:10.842Z,94.93
2023-02-01T00:13:40.872Z,95.00
2023-02-01T00:16:17.504Z,95.28
2023-02-01T00:18:46.662Z,95.18
2023-02-01T00:21:15.723Z,95.24
2023-02-01T00:23:43.237Z,95.28
2023-02-01T00:26:18.904Z,94.92
2023-02-01T00:28:47.005Z,95.04
2023-02-01T00:31:14.080Z,95.53
2023-02-01T00:33:41.250Z,95.34
2023-02-01T00:36:10.286Z,95.08
2023-02-01T00:38:39.249Z,95.02
2023-02-01T00:41:12.850Z,95.04
2023-02-01T00:43:40.823Z,94.84
2023-02-01T00:46:08.146Z,94.78
2023-02-01T00:48:35.414Z,94.83
2023-02-01T00:51:09.858Z,94.65
2023-02-01T00:53:37.024Z,94.83
2023-02-01T00:56:04.854Z,95.17
2023-02-01T00:58:32.608Z,94.42
2023-02-01T01:01:13.044Z,94.82
2023-02-01T01:03:44.615Z,94.73
2023-02-01T01:06:15.470Z,94.56
2023-02-01T01:08:43.863Z,94.82
2023-02-01T01:11:18.540Z,95.04
2023-02-01T01:13:49.079Z,95.24
2023-02-01T01:16:16.847Z,95.53
2023-02-01T01:18:44.202Z,95.48
2023-02-01T01:21:14.286Z,95.47
2023-02-01T01:23:42.716Z,95.37
2023-02-01T01:26:17.752Z,95.51
2023-02-01T01:28:44.724Z,95.16
2023-02-01T01:31:14.494Z,95.37
2023-02-01T01:33:41.788Z,95.04
2023-02-01T01:36:12.834Z,95.16
2023-02-01T01:38:41.284Z,94.92
2023-02-01T01:41:10.142Z,95.21
2023-02-01T01:43:58.138Z,94.84
2023-02-01T01:46:35.264Z,94.73
2023-02-01T01:49:22.727Z,95.18
2023-02-01T01:51:55.215Z,94.92
2023-02-01T01:54:33.366Z,94.77
2023-02-01T01:57:07.636Z,94.86
2023-02-01T01:59:38.765Z,94.97
2023-02-01T02:02:05.662Z,94.71
2023-02-01T02:04:35.419Z,94.86
2023-02-01T02:07:12.873Z,94.76
2023-02-01T02:09:45.481Z,94.71
2023-02-01T02:12:15.084Z,94.99
2023-02-01T02:14:42.694Z,94.80
2023-02-01T02:17:37.213Z,94.88
2023-02-01T02:20:51.650Z,94.75
2023-02-01T02:23:47.622Z,94.96
2023-02-01T02:26:52.617Z,94.92
2023-02-01T02:30:20.464Z,94.80
2023-02-01T02:33:03.368Z,94.71
2023-02-01T02:36:10.788Z,94.72
2023-02-01T02:39:09.229Z,94.96
2023-02-01T02:42:11.599Z,94.87
2023-02-01T02:45:24.813Z,94.96
2023-02-01T02:48:20.784Z,95.11
2023-02-01T02:51:29.626Z,95.12
2023-02-01T02:54:29.697Z,94.87
2023-02-01T02:57:18.143Z,95.26
2023-02-01T03:00:06.819Z,94.69
2023-02-01T03:02:54.292Z,95.39
2023-02-01T03:05:21.806Z,95.41
2023-02-01T03:08:05.114Z,95.04
2023-02-01T03:10:50.563Z,94.97
2023-02-01T03:13:52.779Z,95.24
2023-02-01T03:16:46.915Z,95.01
2023-02-01T03:19:26.424Z,95.24
2023-02-01T03:22:08.929Z,95.07
2023-02-01T03:24:46.419Z,94.91
2023-02-01T03:27:31.311Z,95.16
2023-02-01T03:30:30.862Z,95.01
2023-02-01T03:33:02.278Z,95.21
2023-02-01T03:36:03.985Z,95.10
2023-02-01T03:38:51.497Z,95.53
2023-02-01T03:41:59.742Z,95.24
2023-02-01T03:44:39.664Z,95.52
2023-02-01T03:47:24.363Z,95.27
2023-02-01T03:50:09.937Z,95.11
2023-02-01T03:52:55.863Z,95.19
2023-02-01T03:55:26.089Z,95.52
2023-02-01T03:58:15.424Z,95.39
2023-02-01T04:00:50.796Z,95.50
2023-02-01T04:03:17.884Z,95.22
2023-02-01T04:05:46.175Z,95.45
2023-02-01T04:08:13.160Z,95.12
2023-02-01T04:10:40.143Z,95.63
2023-02-01T04:13:08.349Z,95.26
2023-02-01T04:15:35.817Z,95.39
2023-02-01T04:18:02.801Z,95.16
2023-02-01T04:20:29.813Z,95.52
2023-02-01T04:22:56.730Z,95.52
2023-02-01T04:25:23.719Z,95.42
2023-02-01T04:27:50.643Z,95.65
2023-02-01T04:30:18.063Z,95.44
2023-02-01T04:32:45.003Z,95.52
2023-02-01T04:35:12.649Z,95.28
2023-02-01T04:37:39.671Z,95.16
2023-02-01T04:40:07.672Z,95.28
2023-02-01T04:42:34.594Z,95.22
2023-02-01T04:45:01.521Z,95.76
2023-02-01T04:47:28.436Z,95.28
2023-02-01T04:49:55.706Z,95.25
2023-02-01T04:52:22.604Z,95.38
2023-02-01T04:54:49.497Z,95.27
2023-02-01T04:57:16.405Z,95.27
2023-02-01T04:59:43.318Z,95.39
2023-02-01T05:02:10.351Z,95.42
2023-02-01T05:04:37.332Z,95.42
2023-02-01T05:07:04.276Z,95.51
2023-02-01T05:09:31.186Z,95.71
2023-02-01T05:12:16.353Z,95.11
2023-02-01T05:14:43.455Z,95.05
2023-02-01T05:17:10.512Z,95.09
2023-02-01T05:19:37.416Z,95.65
2023-02-01T05:22:04.355Z,95.64
2023-02-01T05:24:31.239Z,95.32
2023-02-01T05:26:58.139Z,95.73
2023-02-01T05:29:25.124Z,95.69
2023-02-01T05:31:52.242Z,95.60
2023-02-01T05:34:19.266Z,95.53
2023-02-01T05:36:46.173Z,95.56
2023-02-01T05:39:13.232Z,95.64
2023-02-01T05:41:40.150Z,95.85
2023-02-01T05:44:08.211Z,95.57
2023-02-01T05:46:36.436Z,95.69
2023-02-01T05:49:04.370Z,95.76
2023-02-01T05:51:31.534Z,95.64
2023-02-01T05:53:58.457Z,95.38
2023-02-01T05:56:25.398Z,96.07
2023-02-01T05:58:52.424Z,96.25
2023-02-01T06:01:19.348Z,95.90
2023-02-01T06:03:46.341Z,96.22
2023-02-01T06:06:13.405Z,96.06
2023-02-01T06:08:43.124Z,96.35
2023-02-01T06:11:13.390Z,95.61
2023-02-01T06:13:40.459Z,96.17
2023-02-01T06:16:08.360Z,96.28
2023-02-01T06:18:36.316Z,96.37
2023-02-01T06:21:03.556Z,96.65
2023-02-01T06:23:31.613Z,96.19
2023-02-01T06:26:08.792Z,96.52
2023-02-01T06:28:35.857Z,96.50
2023-02-01T06:31:09.871Z,96.62
2023-02-01T06:33:37.564Z,96.70
2023-02-01T06:36:08.133Z,96.27
2023-02-01T06:38:35.835Z,96.15
2023-02-01T06:41:03.489Z,96.18
2023-02-01T06:43:31.263Z,96.22
2023-02-01T06:46:07.628Z,96.39
2023-02-01T06:48:35.158Z,96.33
2023-02-01T06:51:02.201Z,96.45
2023-02-01T06:53:29.423Z,96.22
2023-02-01T06:56:02.366Z,96.29
2023-02-01T06:58:34.133Z,96.12
2023-02-01T07:01:10.091Z,96.46
2023-02-01T07:03:37.311Z,96.33
2023-02-01T07:06:05.445Z,96.25
2023-02-01T07:08:36.064Z,96.47
2023-02-01T07:11:09.234Z,96.44
2023-02-01T07:13:36.828Z,96.49
2023-02-01T07:16:11.645Z,97.08
2023-02-01T07:18:38.733Z,96.56
2023-02-01T07:21:05.866Z,96.42
2023-02-01T07:23:33.138Z,96.73
2023-02-01T07:27:40.582Z,96.46
2023-02-01T07:30:08.834Z,96.34
2023-02-01T07:32:35.854Z,96.46
2023-02-01T07:35:02.792Z,96.19
2023-02-01T07:37:30.755Z,96.32
2023-02-01T07:39:57.814Z,96.46
2023-02-01T07:42:24.781Z,96.67
2023-02-01T07:44:51.682Z,96.54
2023-02-01T07:47:18.636Z,96.89
2023-02-01T07:49:45.582Z,96.60
2023-02-01T07:52:14.030Z,97.00
2023-02-01T07:54:40.975Z,97.05
2023-02-01T07:57:09.665Z,96.73
2023-02-01T07:59:36.580Z,97.25
2023-02-01T08:02:03.555Z,97.13
2023-02-01T08:04:30.506Z,97.16
2023-02-01T08:06:57.408Z,97.16
2023-02-01T08:09:24.310Z,97.12
2023-02-01T08:11:51.209Z,97.32
2023-02-01T08:14:18.236Z,97.03
2023-02-01T08:16:45.259Z,97.49
2023-02-01T08:19:12.346Z,97.05
2023-02-01T08:21:39.251Z,97.01
2023-02-01T08:24:10.762Z,97.61
2023-02-01T08:26:37.704Z,97.58
2023-02-01T08:29:07.661Z,97.30
2023-02-01T08:31:35.166Z,97.50
2023-02-01T08:34:05.146Z,97.34
2023-02-01T08:36:32.575Z,97.55
2023-02-01T08:38:59.929Z,97.49
2023-02-01T08:41:30.542Z,98.13
2023-02-01T08:43:58.475Z,97.67
2023-02-01T08:46:25.807Z,98.47
2023-02-01T08:48:53.072Z,98.31
2023-02-01T08:51:23.236Z,98.10
2023-02-01T08:53:50.847Z,98.08
2023-02-01T08:56:19.959Z,98.28
2023-02-01T08:58:46.999Z,98.09
2023-02-01T09:01:17.653Z,97.87
2023-02-01T09:03:44.772Z,97.93
2023-02-01T09:06:14.706Z,98.04
2023-02-01T09:08:42.448Z,97.80
2023-02-01T09:11:15.106Z,97.55
2023-02-01T09:13:42.661Z,97.60
2023-02-01T09:16:10.022Z,97.23
2023-02-01T09:18:41.978Z,97.66
2023-02-01T09:21:18.416Z,97.45
2023-02-01T09:23:46.107Z,97.26
2023-02-01T09:26:15.068Z,96.98
2023-02-01T09:28:44.222Z,97.44
2023-02-01T09:31:11.271Z,97.35
2023-02-01T09:33:38.262Z,97.11
2023-02-01T09:36:06.138Z,96.95
2023-02-01T09:38:34.615Z,97.25
2023-02-01T09:41:38.768Z,97.38
2023-02-01T09:44:27.677Z,96.87
2023-02-01T09:46:57.315Z,97.02
2023-02-01T09:49:31.014Z,96.83
2023-02-01T09:51:59.951Z,97.13
2023-02-01T09:54:36.208Z,97.18
2023-02-01T09:57:20.218Z,97.37
2023-02-01T10:00:01.601Z,97.34
2023-02-01T10:02:31.320Z,97.05
2023-02-01T10:05:01.769Z,96.82
2023-02-01T10:08:05.725Z,96.75
2023-02-01T10:10:50.598Z,96.80
2023-02-01T10:13:55.055Z,96.51
2023-02-01T10:16:42.376Z,96.68
2023-02-01T10:19:32.275Z,96.37
2023-02-01T10:22:09.686Z,95.58
2023-02-01T10:24:46.784Z,95.45
2023-02-01T10:27:27.010Z,95.72
2023-02-01T10:30:00.322Z,95.16
2023-02-01T10:32:35.866Z,95.21
2023-02-01T10:35:16.041Z,95.36
2023-02-01T10:37:45.988Z,95.41
2023-02-01T10:40:27.846Z,95.03
2023-02-01T10:43:03.710Z,95.20
2023-02-01T10:45:34.439Z,95.19
2023-02-01T10:48:03.449Z,94.83
2023-02-01T10:50:41.527Z,94.77
2023-02-01T10:53:22.199Z,94.41
2023-02-01T10:55:54.553Z,94.80
2023-02-01T10:58:27.640Z,94.31
2023-02-01T11:01:09.557Z,93.70
2023-02-01T11:04:01.203Z,93.93
2023-02-01T11:06:38.787Z,94.16
2023-02-01T11:09:08.637Z,94.10
2023-02-01T11:11:56.686Z,94.28
2023-02-01T11:14:26.257Z,94.24
2023-02-01T11:17:01.419Z,94.43
2023-02-01T11:19:29.748Z,94.26
2023-02-01T11:22:00.990Z,94.07
2023-02-01T11:24:36.467Z,94.26
2023-02-01T11:27:08.195Z,94.32
2023-02-01T11:29:41.283Z,94.23
2023-02-01T11:32:10.928Z,94.59
2023-02-01T11:34:44.646Z,94.15
2023-02-01T11:37:21.627Z,94.01
2023-02-01T11:40:00.244Z,93.86
2023-02-01T11:42:29.327Z,93.72
2023-02-01T11:45:24.658Z,94.11
2023-02-01T11:47:58.538Z,93.82
2023-02-01T11:50:43.508Z,94.10
2023-02-01T11:53:49.644Z,93.65
2023-02-01T11:56:43.161Z,93.47
2023-02-01T11:59:27.920Z,94.17
2023-02-01T12:02:29.357Z,94.04
2023-02-01T12:05:33.747Z,93.53
2023-02-01T12:08:34.261Z,94.00
2023-02-01T12:11:28.684Z,93.54
2023-02-01T12:13:58.251Z,93.64
2023-02-01T12:16:56.267Z,93.50
2023-02-01T12:19:56.108Z,93.29
2023-02-01T12:22:53.105Z,93.10
2023-02-01T12:26:13.175Z,93.37
2023-02-01T12:29:40.498Z,93.36
2023-02-01T12:32:35.158Z,93.29
2023-02-01T12:35:39.773Z,91.57
2023-02-01T12:38:29.668Z,92.21
2023-02-01T12:41:21.456Z,92.41
2023-02-01T12:44:50.157Z,91.86
2023-02-01T12:47:29.074Z,92.11
2023-02-01T12:50:22.469Z,91.70
2023-02-01T12:52:53.270Z,91.81
2023-02-01T12:55:43.580Z,91.16
2023-02-01T12:58:31.891Z,91.48
2023-02-01T13:01:10.719Z,92.00
2023-02-01T13:04:40.266Z,92.01
2023-02-01T13:07:19.480Z,91.72
2023-02-01T13:10:13.424Z,91.73
2023-02-01T13:12:58.722Z,92.31
2023-02-01T13:15:33.727Z,91.98
2023-02-01T13:18:05.774Z,91.29
2023-02-01T13:20:48.091Z,91.36
2023-02-01T13:23:32.248Z,91.28
2023-02-01T13:25:59.722Z,90.94
2023-02-01T13:28:50.144Z,91.30
2023-02-01T13:31:53.761Z,90.28
2023-02-01T13:35:12.094Z,90.27
2023-02-01T13:39:00.144Z,90.40
2023-02-01T13:41:42.296Z,90.84
2023-02-01T13:44:18.181Z,90.50
2023-02-01T13:46:48.022Z,89.94
2023-02-01T13:49:32.021Z,89.49
2023-02-01T13:52:00.185Z,90.03
2023-02-01T13:54:35.760Z,89.62
2023-02-01T13:57:05.420Z,89.56
2023-02-01T13:59:41.054Z,90.45
2023-02-01T14:02:41.629Z,89.73
2023-02-01T14:05:35.281Z,89.33
2023-02-01T14:08:08.621Z,89.02
2023-02-01T14:10:51.551Z,89.64
2023-02-01T14:13:33.477Z,89.26
2023-02-01T14:16:03.143Z,89.02
2023-02-01T14:18:38.791Z,89.46
2023-02-01T14:21:26.626Z,88.85
2023-02-01T14:24:08.330Z,89.55
2023-02-01T14:26:47.712Z,89.08
2023-02-01T14:29:21.596Z,89.57
2023-02-01T14:32:26.292Z,89.31
2023-02-01T14:35:00.973Z,89.35
2023-02-01T14:37:37.548Z,89.31
2023-02-01T14:40:21.443Z,89.95
2023-02-01T14:42:55.594Z,89.00
2023-02-01T14:45:22.971Z,89.05
2023-02-01T14:47:56.278Z,89.17
2023-02-01T14:50:38.284Z,89.05
2023-02-01T14:53:13.934Z,89.14
2023-02-01T14:56:07.050Z,89.13
2023-02-01T14:59:13.995Z,88.44
2023-02-01T15:01:53.116Z,88.84
2023-02-01T15:04:22.692Z,88.61
2023-02-01T15:06:59.838Z,88.97
2023-02-01T15:09:46.996Z,88.73
2023-02-01T15:12:27.715Z,88.91
2023-02-01T15:15:22.051Z,88.62
2023-02-01T15:18:00.804Z,88.58
2023-02-01T15:20:31.525Z,88.93
2023-02-01T15:23:08.783Z,88.46
2023-02-01T15:25:39.477Z,88.20
2023-02-01T15:28:14.836Z,88.66
2023-02-01T15:31:10.106Z,89.00
2023-02-01T15:33:37.351Z,88.44
2023-02-01T15:36:06.944Z,88.87
2023-02-01T15:38:39.101Z,88.77
2023-02-01T15:41:20.367Z,88.92
2023-02-01T15:43:56.368Z,89.34
2023-02-01T15:46:39.691Z,88.65
2023-02-01T15:49:37.041Z,88.25
2023-02-01T15:52:12.641Z,87.96
2023-02-01T15:54:47.792Z,88.05
2023-02-01T15:57:31.665Z,87.81
2023-02-01T16:00:07.808Z,88.08
2023-02-01T16:03:00.452Z,88.23
2023-02-01T16:05:41.721Z,87.40
2023-02-01T16:08:25.137Z,88.02
2023-02-01T16:11:14.271Z,87.58
2023-02-01T16:13:42.112Z,88.42
2023-02-01T16:16:14.705Z,88.22
2023-02-01T16:18:42.292Z,87.58
2023-02-01T16:21:10.101Z,87.98
2023-02-01T16:23:37.964Z,87.93
2023-02-01T16:26:06.763Z,87.02
2023-02-01T16:28:34.139Z,87.93
2023-02-01T16:31:02.165Z,88.07
2023-02-01T16:33:29.447Z,87.64
2023-02-01T16:36:03.016Z,87.82
2023-02-01T16:38:30.050Z,87.52
2023-02-01T16:40:58.486Z,87.45
2023-02-01T16:43:27.178Z,87.93
2023-02-01T16:45:59.742Z,87.97
2023-02-01T16:48:34.428Z,87.43
2023-02-01T16:51:09.670Z,87.89
2023-02-01T16:53:53.202Z,87.73
2023-02-01T16:56:25.730Z,87.99
2023-02-01T16:58:54.135Z,87.20
2023-02-01T17:01:21.719Z,87.28
2023-02-01T17:03:48.774Z,87.90
2023-02-01T17:06:20.417Z,87.84
2023-02-01T17:08:59.553Z,87.15
2023-02-01T17:11:27.908Z,87.06
2023-02-01T17:13:54.827Z,87.53
2023-02-01T17:16:23.742Z,87.20
2023-02-01T17:19:07.990Z,87.15
2023-02-01T17:21:49.771Z,87.10
2023-02-01T17:24:20.061Z,87.54
2023-02-01T17:26:47.763Z,86.88
2023-02-01T17:29:14.771Z,86.69
2023-02-01T17:31:45.720Z,87.06
2023-02-01T17:34:18.958Z,86.24
2023-02-01T17:36:47.583Z,86.54
2023-02-01T17:39:36.068Z,86.53
2023-02-01T17:42:05.620Z,86.50
2023-02-01T17:44:32.677Z,86.69
2023-02-01T17:46:59.716Z,86.90
2023-02-01T17:49:28.786Z,86.28
2023-02-01T17:51:57.566Z,86.71
2023-02-01T17:54:26.238Z,86.65
2023-02-01T17:56:53.257Z,87.12
2023-02-01T17:59:20.189Z,86.93
2023-02-01T18:01:47.166Z,87.04
2023-02-01T18:04:18.596Z,86.97
2023-02-01T18:06:45.961Z,86.27
2023-02-01T18:09:12.908Z,86.51
2023-02-01T18:11:39.881Z,86.65
2023-02-01T18:14:06.809Z,86.45
2023-02-01T18:16:36.350Z,86.22
2023-02-01T18:19:05.092Z,86.31
2023-02-01T18:21:44.000Z,86.19
2023-02-01T18:24:14.447Z,86.08
2023-02-01T18:26:42.948Z,86.05
2023-02-01T18:29:09.865Z,85.16
2023-02-01T18:31:47.004Z,85.82
2023-02-01T18:34:21.084Z,85.90
2023-02-01T18:36:49.652Z,86.18
2023-02-01T18:39:17.634Z,86.05
2023-02-01T18:41:47.889Z,86.08
2023-02-01T18:44:16.261Z,85.75
2023-02-01T18:46:43.836Z,85.70
2023-02-01T18:49:13.826Z,85.47
2023-02-01T18:51:42.476Z,85.59
2023-02-01T18:54:12.075Z,85.30
2023-02-01T18:56:39.543Z,85.43
2023-02-01T18:59:06.446Z,85.85
2023-02-01T19:01:33.396Z,85.66
2023-02-01T19:04:07.767Z,86.23
2023-02-01T19:06:39.347Z,85.62
2023-02-01T19:09:06.281Z,85.96
2023-02-01T19:11:33.225Z,85.80
2023-02-01T19:14:00.210Z,85.65
2023-02-01T19:16:27.161Z,86.27
2023-02-01T19:18:54.520Z,85.71
2023-02-01T19:21:21.497Z,85.97
2023-02-01T19:23:48.458Z,85.87
2023-02-01T19:26:17.507Z,85.61
2023-02-01T19:28:48.719Z,86.13
2023-02-01T19:31:17.563Z,86.20
2023-02-01T19:33:44.875Z,86.13
2023-02-01T19:36:11.822Z,86.32
2023-02-01T19:38:40.121Z,85.95
2023-02-01T19:41:07.087Z,86.27
2023-02-01T19:43:35.255Z,86.25
2023-02-01T19:46:02.983Z,86.33
2023-02-01T19:48:31.628Z,85.63
2023-02-01T19:50:59.249Z,85.50
2023-02-01T19:53:27.799Z,85.81
2023-02-01T19:55:58.888Z,85.91
2023-02-01T19:58:26.445Z,85.78
2023-02-01T20:00:57.116Z,86.17
2023-02-01T20:03:24.427Z,86.05
2023-02-01T20:05:53.671Z,85.81
2023-02-01T20:08:21.128Z,85.99
2023-02-01T20:10:48.327Z,86.38
2023-02-01T20:13:16.408Z,85.91
2023-02-01T20:15:43.756Z,85.74
2023-02-01T20:18:10.747Z,85.71
2023-02-01T20:20:37.869Z,85.60
2023-02-01T20:23:06.226Z,85.76
2023-02-01T20:25:34.221Z,85.94
2023-02-01T20:28:01.456Z,85.68
2023-02-01T20:30:29.289Z,86.08
2023-02-01T20:32:56.346Z,85.99
2023-02-01T20:35:23.671Z,86.20
2023-02-01T20:37:51.710Z,86.06
2023-02-01T20:40:18.839Z,86.20
2023-02-01T20:42:46.048Z,85.91
2023-02-01T20:45:13.253Z,85.78
2023-02-01T20:47:42.194Z,86.27
2023-02-01T20:50:10.185Z,86.06
2023-02-01T20:52:37.116Z,86.02
2023-02-01T20:55:04.590Z,86.21
2023-02-01T20:57:31.580Z,86.11
2023-02-01T20:59:58.517Z,85.98
2023-02-01T21:02:25.592Z,85.71
2023-02-01T21:04:52.688Z,86.11
2023-02-01T21:07:20.061Z,85.85
2023-02-01T21:09:47.026Z,85.91
2023-02-01T21:12:13.939Z,85.97
2023-02-01T21:14:40.884Z,85.96
2023-02-01T21:17:07.814Z,85.84
2023-02-01T21:19:43.359Z,86.53
2023-02-01T21:22:15.209Z,86.06
2023-02-01T21:24:42.668Z,85.94
2023-02-01T21:27:10.636Z,86.62
2023-02-01T21:29:37.954Z,86.29
2023-02-01T21:32:06.859Z,86.52
2023-02-01T21:34:35.206Z,86.56
2023-02-01T21:37:02.368Z,86.52
2023-02-01T21:39:29.292Z,86.70
2023-02-01T21:42:16.543Z,86.12
2023-02-01T21:44:47.945Z,86.47
2023-02-01T21:47:26.042Z,86.67
2023-02-01T21:49:53.557Z,86.36
2023-02-01T21:52:21.871Z,86.61
2023-02-01T21:54:48.907Z,86.38
2023-02-01T21:57:15.826Z,86.70
2023-02-01T21:59:43.712Z,86.18
2023-02-01T22:02:16.444Z,85.86
2023-02-01T22:04:44.287Z,86.33
2023-02-01T22:07:12.200Z,86.50
2023-02-01T22:09:39.375Z,85.86
2023-02-01T22:12:08.287Z,86.35
2023-02-01T22:14:35.192Z,86.36
2023-02-01T22:17:02.183Z,86.11
2023-02-01T22:19:29.080Z,85.92
2023-02-01T22:21:55.958Z,86.14
2023-02-01T22:24:22.907Z,86.14
2023-02-01T22:26:50.311Z,86.22
2023-02-01T22:29:19.146Z,86.10
2023-02-01T22:31:46.646Z,85.80
2023-02-01T22:34:13.889Z,85.88
2023-02-01T22:36:41.132Z,86.00
2023-02-01T22:39:08.373Z,85.86
2023-02-01T22:41:35.326Z,86.44
2023-02-01T22:44:02.293Z,86.03
2023-02-01T22:46:31.328Z,86.05
2023-02-01T22:48:59.952Z,86.14
2023-02-01T22:51:30.816Z,86.36
2023-02-01T22:53:58.691Z,85.86
2023-02-01T22:56:30.141Z,86.02
2023-02-01T22:59:02.194Z,86.24
2023-02-01T23:01:29.271Z,86.20
2023-02-01T23:03:58.878Z,86.00
2023-02-01T23:06:26.798Z,85.92
2023-02-01T23:08:59.695Z,85.86
2023-02-01T23:11:28.043Z,86.19
2023-02-01T23:13:56.275Z,86.16
2023-02-01T23:16:23.705Z,86.10
2023-02-01T23:18:50.608Z,86.19
2023-02-01T23:21:21.477Z,86.21
2023-02-01T23:23:59.952Z,85.77
2023-02-01T23:26:30.240Z,86.25
2023-02-01T23:28:58.732Z,86.04
2023-02-01T23:31:30.725Z,86.37
2023-02-01T23:33:59.747Z,86.21
2023-02-01T23:36:28.738Z,86.14
2023-02-01T23:38:56.021Z,85.93
2023-02-01T23:41:24.368Z,86.45
2023-02-01T23:43:57.729Z,86.62
2023-02-01T23:46:40.164Z,86.56
2023-02-01T23:49:10.395Z,86.03
2023-02-01T23:51:37.556Z,86.36
2023-02-01T23:54:07.527Z,86.02
2023-02-01T23:56:42.842Z,86.13
2023-02-01T23:59:21.701Z,85.94
